Time;durP1;ratioP1;P1;durP2;ratioP2;P2;SDS_P1;SDS_P2;PMS_P1;PMS_P2;Temp;Humidity;BMP_temperature;BMP_pressure;BME280_temperature;BME280_humidity;BME280_pressure;Samples;Min_cycle;Max_cycle;Signal;HPM_P1;HPM_P2
2021/09/30 00:00:30;;;;;;;15.40;7.00;;;;;;;8.18;65.39;100824.80;27353;1215;3026187;-71
2021/09/30 00:02:59;;;;;;;16.20;7.10;;;;;;;8.16;65.40;100824.34;27369;1216;3052492;-71
2021/09/30 00:05:28;;;;;;;17.40;6.20;;;;;;;8.12;65.70;100822.89;27317;1213;3027477;-72
2021/09/30 00:07:57;;;;;;;13.00;6.80;;;;;;;8.10;65.74;100821.56;27352;1214;3048693;-72
2021/09/30 00:10:26;;;;;;;11.20;6.70;;;;;;;8.08;65.99;100820.75;27335;1216;3026296;-71
2021/09/30 00:13:03;;;;;;;15.70;7.30;;;;;;;8.07;65.64;100819.20;27360;1214;3058195;-73
2021/09/30 00:18:37;;;;;;;11.20;6.40;;;;;;;7.99;65.79;100821.17;27301;1216;3052542;-70
2021/09/30 00:33:22;;;;;;;12.10;5.00;;;;;;;9.22;62.73;100817.93;27277;1214;3054966;-72
2021/09/30 00:52:08;;;;;;;9.10;5.50;;;;;;;8.23;64.32;100830.77;27315;1208;3025918;-70
2021/09/30 02:22:56;;;;;;;16.50;5.30;;;;;;;7.57;64.77;100841.66;27278;1219;3025692;-71
2021/09/30 02:31:15;;;;;;;8.10;4.00;;;;;;;7.32;65.36;100841.23;27224;1219;3050717;-72
2021/09/30 02:59:17;;;;;;;9.60;5.00;;;;;;;6.84;66.31;100847.45;27306;1216;3049510;-71
2021/09/30 03:01:47;;;;;;;9.30;5.30;;;;;;;6.77;66.43;100851.45;27276;1215;3026475;-72
2021/09/30 03:04:17;;;;;;;9.70;5.30;;;;;;;6.75;66.36;100852.19;27229;1216;3027239;-71
2021/09/30 03:06:46;;;;;;;9.90;5.80;;;;;;;6.75;66.57;100853.92;27245;1215;3047839;-72
2021/09/30 03:09:19;;;;;;;16.00;6.80;;;;;;;6.71;66.70;100855.94;27332;1216;3029120;-74
2021/09/30 03:12:20;;;;;;;11.30;5.20;;;;;;;6.69;67.42;100860.84;27298;1215;3068535;-71
2021/09/30 03:15:03;;;;;;;10.80;4.80;;;;;;;7.42;65.48;100862.25;27338;1215;3049273;-73
2021/09/30 03:23:11;;;;;;;8.50;4.60;;;;;;;7.89;63.24;100868.02;27261;1216;3058420;-71
2021/09/30 03:25:42;;;;;;;8.10;4.90;;;;;;;7.72;63.82;100866.73;27363;1214;3026394;-69
2021/09/30 03:28:11;;;;;;;16.70;6.30;;;;;;;7.59;63.90;100864.80;27410;1215;3026013;-72
2021/09/30 03:30:40;;;;;;;12.80;4.90;;;;;;;7.41;64.09;100865.96;27279;1216;3025988;-71
2021/09/30 03:33:10;;;;;;;10.20;5.20;;;;;;;7.26;64.34;100869.13;27289;1216;3049344;-72
2021/09/30 03:35:44;;;;;;;12.00;4.90;;;;;;;7.15;64.68;100865.04;27324;1215;3052830;-73
2021/09/30 03:38:14;;;;;;;10.50;5.40;;;;;;;7.05;64.91;100866.30;27409;1215;3026202;-72
2021/09/30 03:40:44;;;;;;;9.60;4.70;;;;;;;6.94;65.21;100866.74;27247;1215;3026430;-70
2021/09/30 03:43:13;;;;;;;10.20;5.30;;;;;;;6.88;65.20;100863.73;27320;1209;3026536;-70
2021/09/30 03:45:42;;;;;;;8.70;4.80;;;;;;;6.78;65.64;100868.84;27302;1216;3050143;-71
2021/09/30 03:48:17;;;;;;;8.40;4.80;;;;;;;6.71;65.91;100871.27;27273;1215;3069138;-73
2021/09/30 04:01:32;;;;;;;10.30;4.80;;;;;;;6.52;66.47;100881.42;27265;1216;3054647;-71
2021/09/30 04:04:02;;;;;;;16.00;5.00;;;;;;;6.55;66.27;100881.70;27379;1215;3026346;-72
2021/09/30 04:06:31;;;;;;;9.70;5.30;;;;;;;6.56;66.37;100887.44;27550;1214;3048813;-70
2021/09/30 04:09:01;;;;;;;9.10;5.30;;;;;;;6.53;66.57;100888.19;27490;1214;3025796;-70
2021/09/30 04:11:30;;;;;;;11.60;5.60;;;;;;;6.51;66.40;100891.02;27465;1214;3068203;-71
2021/09/30 04:14:15;;;;;;;12.00;5.10;;;;;;;6.47;66.86;100888.33;27292;1215;3050836;-72
2021/09/30 04:16:47;;;;;;;8.60;4.90;;;;;;;6.46;66.76;100889.21;27263;1216;3026643;-72
2021/09/30 04:19:17;;;;;;;14.60;5.10;;;;;;;6.43;66.89;100889.43;27330;1215;3026554;-73
2021/09/30 04:21:47;;;;;;;8.80;4.90;;;;;;;6.45;66.70;100892.54;27319;1209;3026040;-72
2021/09/30 04:24:20;;;;;;;11.60;5.50;;;;;;;6.46;66.80;100894.27;27297;1216;3053925;-73
2021/09/30 04:26:50;;;;;;;11.00;5.20;;;;;;;6.46;66.76;100895.83;27337;1216;3026596;-71
2021/09/30 04:29:20;;;;;;;8.10;5.20;;;;;;;6.51;66.60;100897.63;27332;1214;3026112;-73
2021/09/30 04:31:49;;;;;;;12.10;5.60;;;;;;;6.60;66.12;100897.63;27249;1214;3026144;-70
2021/09/30 04:34:18;;;;;;;13.60;5.70;;;;;;;6.66;66.22;100902.55;27356;1215;3050722;-72
2021/09/30 04:36:55;;;;;;;8.00;4.90;;;;;;;6.68;66.08;100902.51;27301;1215;3056858;-71
2021/09/30 04:39:25;;;;;;;14.30;5.60;;;;;;;6.66;65.93;100909.84;27377;1215;3026278;-72
2021/09/30 04:41:54;;;;;;;8.70;4.60;;;;;;;6.70;65.92;100911.51;27277;1209;3025756;-71
2021/09/30 04:44:24;;;;;;;8.00;5.00;;;;;;;6.76;65.66;100908.94;27389;1215;3057540;-71
2021/09/30 04:46:56;;;;;;;11.40;5.00;;;;;;;6.83;65.38;100911.56;27349;1215;3027149;-71
2021/09/30 04:49:57;;;;;;;15.70;5.20;;;;;;;6.87;65.09;100914.27;27384;1216;3052686;-73
2021/09/30 04:52:26;;;;;;;11.10;4.50;;;;;;;6.84;65.01;100913.13;27299;1215;3026097;-70
2021/09/30 04:54:55;;;;;;;10.50;4.60;;;;;;;6.85;64.70;100914.83;27257;1215;3050886;-73
2021/09/30 04:57:24;;;;;;;11.80;5.10;;;;;;;6.86;64.72;100916.90;27267;1215;3029264;-72
2021/09/30 04:59:53;;;;;;;9.80;4.40;;;;;;;6.87;64.64;100915.14;27326;1215;3055254;-72
2021/09/30 05:02:49;;;;;;;9.60;4.90;;;;;;;6.87;64.44;100914.96;27353;1214;3052453;-74
2021/09/30 05:05:19;;;;;;;10.50;4.70;;;;;;;6.89;64.61;100917.38;27297;1215;3026180;-72
2021/09/30 05:07:48;;;;;;;10.10;4.70;;;;;;;6.92;64.51;100924.79;27276;1215;3054783;-71
2021/09/30 05:10:20;;;;;;;11.10;4.70;;;;;;;6.99;64.17;100923.26;27313;1214;3029655;-73
2021/09/30 05:12:50;;;;;;;13.80;4.70;;;;;;;7.04;64.09;100927.83;27370;1214;3051394;-71
2021/09/30 05:15:19;;;;;;;9.20;4.90;;;;;;;7.07;63.79;100923.23;27324;1215;3027906;-73
2021/09/30 05:17:54;;;;;;;9.40;4.90;;;;;;;7.10;63.54;100923.86;27383;1215;3054719;-72
2021/09/30 05:20:43;;;;;;;12.20;4.90;;;;;;;7.20;63.05;100921.38;27291;1215;3051487;-74
2021/09/30 05:23:12;;;;;;;11.90;4.60;;;;;;;7.21;63.07;100925.69;27337;1215;3026140;-74
2021/09/30 05:25:41;;;;;;;13.00;4.40;;;;;;;7.28;62.50;100929.55;27298;1214;3054167;-73
2021/09/30 05:28:10;;;;;;;13.90;5.10;;;;;;;7.33;62.57;100935.36;27310;1206;3025921;-73
2021/09/30 05:30:39;;;;;;;7.60;4.50;;;;;;;7.31;62.41;100929.12;27331;1214;3026336;-72
2021/09/30 05:33:13;;;;;;;14.40;5.10;;;;;;;7.32;62.62;100929.98;27274;1215;3049193;-70
2021/09/30 05:35:44;;;;;;;13.00;4.90;;;;;;;7.37;62.35;100933.52;27296;1215;3027964;-73
2021/09/30 05:38:13;;;;;;;10.80;5.20;;;;;;;7.47;62.05;100934.33;27288;1215;3026025;-72
2021/09/30 05:40:42;;;;;;;7.40;5.20;;;;;;;7.50;61.92;100937.05;27306;1215;3050776;-72
2021/09/30 05:44:22;;;;;;;12.20;4.80;;;;;;;7.56;61.61;100937.41;27341;1214;3054564;-72
2021/09/30 05:46:17;;;;;;;13.30;4.90;;;;;;;7.69;61.69;100938.30;27292;1215;3050556;-71
2021/09/30 05:48:47;;;;;;;13.80;4.60;;;;;;;7.82;61.36;100940.79;27343;1213;3027844;-71
2021/09/30 05:51:17;;;;;;;8.20;5.20;;;;;;;7.87;60.88;100947.45;27316;1215;3026164;-69
2021/09/30 05:54:17;;;;;;;11.00;5.40;;;;;;;7.83;60.88;100945.80;27347;1216;3052582;-71
2021/09/30 05:56:53;;;;;;;9.00;4.60;;;;;;;7.86;60.60;100947.83;27386;1216;3052183;-72
2021/09/30 05:59:22;;;;;;;10.20;4.90;;;;;;;7.96;60.07;100948.64;27361;1215;3026180;-70
2021/09/30 06:10:22;;;;;;;12.90;5.30;;;;;;;8.32;58.82;100957.26;27310;1215;3049629;-73
2021/09/30 06:12:56;;;;;;;9.60;4.20;;;;;;;8.35;59.02;100957.52;27263;1215;3055051;-72
2021/09/30 06:15:38;;;;;;;11.50;4.90;;;;;;;8.41;58.80;100954.90;27364;1215;3051666;-72
2021/09/30 06:18:08;;;;;;;10.20;4.50;;;;;;;8.42;59.07;100957.35;27307;1214;3068089;-70
2021/09/30 06:20:57;;;;;;;10.30;4.80;;;;;;;8.48;59.36;100959.48;27338;1214;3048881;-72
2021/09/30 06:23:27;;;;;;;11.70;4.60;;;;;;;8.62;58.75;100952.80;27359;1214;3025914;-72
2021/09/30 06:25:56;;;;;;;9.90;4.60;;;;;;;8.70;58.43;100951.33;27346;1216;3027389;-73
2021/09/30 06:28:25;;;;;;;12.00;5.00;;;;;;;8.77;58.07;100951.66;27333;1215;3049032;-74
2021/09/30 06:30:57;;;;;;;13.50;4.70;;;;;;;8.81;58.18;100951.19;27302;1215;3026158;-70
2021/09/30 06:33:53;;;;;;;8.80;4.70;;;;;;;8.94;58.52;100947.66;27306;1214;3052806;-72
2021/09/30 06:36:40;;;;;;;8.60;4.40;;;;;;;9.02;57.75;100955.11;27322;1214;3059187;-72
2021/09/30 06:39:11;;;;;;;9.00;4.60;;;;;;;9.06;58.14;100954.98;27267;1215;3026355;-69
2021/09/30 06:41:45;;;;;;;10.30;5.00;;;;;;;9.16;58.35;100957.46;27319;1215;3051845;-69
2021/09/30 06:44:32;;;;;;;11.20;5.10;;;;;;;9.26;58.21;100959.27;27343;1215;3051211;-73
2021/09/30 06:47:20;;;;;;;5.90;4.00;;;;;;;9.35;57.77;100954.79;27302;1206;3071396;-72
2021/09/30 06:49:50;;;;;;;8.60;4.10;;;;;;;9.43;57.29;100951.55;27372;1214;3026579;-72
2021/09/30 06:52:52;;;;;;;7.40;4.30;;;;;;;9.52;56.81;100950.21;27263;1215;3054269;-72
2021/09/30 06:55:45;;;;;;;11.90;4.20;;;;;;;9.60;56.95;100949.44;27353;1215;3052174;-69
2021/09/30 06:58:35;;;;;;;9.40;4.10;;;;;;;9.71;56.48;100950.45;27322;1214;3055772;-71
2021/09/30 07:01:43;;;;;;;12.90;4.40;;;;;;;9.79;56.23;100949.33;27273;1214;3049200;-70
2021/09/30 07:04:27;;;;;;;6.60;4.00;;;;;;;9.94;55.95;100949.54;27330;1215;3052816;-72
2021/09/30 07:07:08;;;;;;;8.80;3.80;;;;;;;10.01;55.34;100947.70;27269;1215;3051321;-72
2021/09/30 07:11:50;;;;;;;6.50;3.60;;;;;;;10.25;54.06;100951.93;34364;1218;3025875;-69
2021/09/30 07:14:19;;;;;;;10.40;4.80;;;;;;;10.63;54.53;100953.41;27186;1220;3027742;-71
2021/09/30 07:16:48;;;;;;;6.60;3.60;;;;;;;11.03;52.28;100951.03;27195;1218;3026184;-72
2021/09/30 07:19:17;;;;;;;10.10;3.40;;;;;;;10.98;51.26;100950.70;27220;1218;3050725;-70
2021/09/30 07:21:47;;;;;;;7.20;3.10;;;;;;;10.86;51.20;100948.17;27292;1218;3025947;-72
2021/09/30 07:24:16;;;;;;;8.00;3.50;;;;;;;10.89;51.51;100948.56;27280;1220;3070445;-70
2021/09/30 07:26:45;;;;;;;5.40;2.90;;;;;;;11.01;50.67;100949.87;27178;1220;3026146;-73
2021/09/30 07:29:14;;;;;;;6.70;3.30;;;;;;;11.06;50.38;100951.94;27242;1218;3050867;-70
2021/09/30 07:31:43;;;;;;;6.10;3.30;;;;;;;11.07;50.46;100954.73;27223;1218;3026273;-71
2021/09/30 07:34:12;;;;;;;11.90;3.00;;;;;;;11.11;50.24;100951.41;27243;1218;3051454;-73
2021/09/30 07:36:42;;;;;;;9.50;3.30;;;;;;;11.16;50.09;100950.02;27314;1217;3026542;-70
2021/09/30 07:39:11;;;;;;;6.70;3.10;;;;;;;11.26;50.02;100946.26;27276;1218;3048147;-67
2021/09/30 07:41:41;;;;;;;6.00;3.10;;;;;;;11.34;49.95;100938.56;27238;1219;3026104;-70
2021/09/30 07:44:10;;;;;;;4.90;2.90;;;;;;;11.42;49.15;100941.22;27286;1218;3056221;-70
2021/09/30 07:46:39;;;;;;;8.30;3.40;;;;;;;11.51;49.22;100940.68;27267;1218;3026240;-70
2021/09/30 07:49:09;;;;;;;10.70;3.50;;;;;;;11.53;48.73;100941.13;27285;1219;3052712;-68
2021/09/30 07:51:38;;;;;;;6.40;3.00;;;;;;;11.55;48.71;100940.71;27687;1219;3026180;-71
2021/09/30 07:54:08;;;;;;;8.10;2.60;;;;;;;11.60;49.13;100941.52;27928;1216;3025148;-73
2021/09/30 07:56:37;;;;;;;7.60;2.80;;;;;;;11.69;46.98;100935.76;27318;1216;3054035;-74
2021/09/30 07:59:06;;;;;;;9.90;2.30;;;;;;;11.72;44.91;100936.83;27269;1217;3025795;-70
2021/09/30 08:01:35;;;;;;;9.00;2.30;;;;;;;11.83;45.11;100935.50;27254;1216;3050096;-73
2021/09/30 08:04:04;;;;;;;4.30;2.90;;;;;;;11.91;44.94;100936.93;27280;1217;3025954;-73
2021/09/30 08:06:34;;;;;;;8.30;2.80;;;;;;;11.95;44.55;100933.42;27310;1216;3048572;-69
2021/09/30 08:09:02;;;;;;;5.10;2.80;;;;;;;12.03;44.60;100932.05;27333;1213;3026317;-70
2021/09/30 08:11:51;;;;;;;6.50;3.10;;;;;;;12.16;43.90;100926.39;27275;1217;3069429;-68
2021/09/30 08:14:20;;;;;;;6.10;2.60;;;;;;;12.26;44.18;100922.29;27359;1218;3026294;-75
2021/09/30 08:16:49;;;;;;;9.60;2.70;;;;;;;12.31;44.15;100921.70;27266;1218;3050629;-68
2021/09/30 08:19:38;;;;;;;3.50;2.20;;;;;;;12.38;42.84;100919.29;27336;1217;3070932;-67
2021/09/30 08:22:07;;;;;;;5.00;2.20;;;;;;;12.48;42.51;100911.79;27322;1217;3028197;-70
2021/09/30 08:24:36;;;;;;;7.70;2.80;;;;;;;12.57;41.98;100914.37;27272;1218;3048521;-67
2021/09/30 08:27:05;;;;;;;10.10;2.70;;;;;;;12.58;42.03;100917.30;27334;1218;3027072;-70
2021/09/30 08:29:36;;;;;;;4.30;2.40;;;;;;;12.65;42.35;100918.61;27326;1218;3054726;-69
2021/09/30 08:32:09;;;;;;;;;;;;;;;12.77;41.81;100911.52;27340;1218;3052514;-70
2021/09/30 08:34:37;;;;;;;8.70;2.60;;;;;;;12.80;41.45;100910.67;27305;1218;3026785;-66
2021/09/30 08:37:07;;;;;;;5.00;2.60;;;;;;;12.89;41.29;100911.83;27316;1218;3054871;-68
2021/09/30 08:39:36;;;;;;;10.40;2.70;;;;;;;12.94;40.64;100916.52;27314;1212;3026662;-69
2021/09/30 08:42:05;;;;;;;13.80;2.50;;;;;;;13.07;40.54;100912.20;27285;1218;3027436;-67
2021/09/30 08:44:35;;;;;;;7.60;3.20;;;;;;;13.13;40.95;100914.39;27287;1217;3055298;-69
2021/09/30 08:47:04;;;;;;;8.10;2.60;;;;;;;13.27;40.61;100912.48;27316;1218;3025914;-68
2021/09/30 08:49:34;;;;;;;5.70;3.00;;;;;;;13.24;39.95;100907.52;27258;1217;3027666;-70
2021/09/30 08:52:03;;;;;;;5.40;2.80;;;;;;;13.29;39.89;100907.45;27267;1219;3054191;-71
2021/09/30 08:54:33;;;;;;;6.10;3.10;;;;;;;13.32;40.05;100901.70;27296;1218;3027092;-72
2021/09/30 08:57:05;;;;;;;9.60;2.80;;;;;;;13.45;40.25;100900.21;27321;1217;3027269;-69
2021/09/30 08:59:36;;;;;;;9.60;2.80;;;;;;;13.55;39.20;100896.34;27298;1218;3026646;-69
2021/09/30 09:02:14;;;;;;;5.30;2.60;;;;;;;13.57;39.27;100896.96;27373;1219;3026567;-68
2021/09/30 09:04:57;;;;;;;7.50;2.70;;;;;;;13.64;38.42;100892.75;27264;1218;3054511;-70
2021/09/30 09:07:27;;;;;;;4.60;2.30;;;;;;;13.77;37.81;100884.34;27318;1219;3056150;-70
2021/09/30 09:09:58;;;;;;;6.10;2.90;;;;;;;13.86;37.52;100885.63;27307;1219;3026256;-69
2021/09/30 09:12:31;;;;;;;4.30;2.00;;;;;;;13.99;38.23;100882.31;27303;1217;3026072;-72
2021/09/30 09:15:00;;;;;;;4.50;2.10;;;;;;;14.02;36.81;100880.92;27343;1217;3027863;-69
2021/09/30 09:17:29;;;;;;;6.10;2.30;;;;;;;13.90;36.31;100882.28;27275;1217;3026422;-68
2021/09/30 09:20:00;;;;;;;7.10;2.10;;;;;;;13.97;36.76;100878.05;27332;1218;3054740;-68
2021/09/30 09:22:34;;;;;;;6.60;1.90;;;;;;;14.07;36.11;100880.67;27250;1218;3027080;-68
2021/09/30 09:25:07;;;;;;;;;;;;;;;14.03;36.15;100877.88;27285;1219;3067544;-72
2021/09/30 09:27:43;;;;;;;5.70;2.00;;;;;;;14.08;36.24;100874.80;27247;1217;3050554;-72
2021/09/30 09:30:30;;;;;;;3.50;2.10;;;;;;;14.10;36.12;100877.02;27269;1217;3054455;-66
2021/09/30 09:33:09;;;;;;;4.60;2.00;;;;;;;14.21;35.65;100874.80;27275;1217;3053707;-67
2021/09/30 09:35:56;;;;;;;5.60;2.10;;;;;;;14.34;35.48;100870.96;27307;1218;3025705;-72
2021/09/30 09:38:28;;;;;;;7.00;1.80;;;;;;;14.53;34.84;100869.06;27297;1217;3049032;-67
2021/09/30 09:41:05;;;;;;;3.20;2.00;;;;;;;14.49;35.51;100873.12;27259;1217;3026480;-71
2021/09/30 09:43:35;;;;;;;2.70;2.10;;;;;;;14.51;35.95;100873.55;27323;1217;3050019;-70
2021/09/30 09:46:04;;;;;;;4.30;2.40;;;;;;;14.64;35.94;100866.16;27321;1217;3028709;-67
2021/09/30 09:48:34;;;;;;;7.40;2.70;;;;;;;14.71;36.01;100867.22;27244;1217;3026714;-72
2021/09/30 09:51:08;;;;;;;9.40;2.50;;;;;;;14.86;35.94;100860.89;27353;1218;3026818;-68
2021/09/30 09:53:39;;;;;;;5.60;2.40;;;;;;;14.98;35.06;100861.45;27247;1217;3054100;-71
2021/09/30 09:56:16;;;;;;;2.90;2.00;;;;;;;15.10;35.06;100858.82;27311;1217;3027867;-72
2021/09/30 09:58:53;;;;;;;3.90;2.00;;;;;;;15.07;34.52;100856.39;27268;1218;3052249;-67
2021/09/30 10:01:27;;;;;;;4.60;2.10;;;;;;;15.15;33.80;100856.80;27380;1219;3054516;-69
2021/09/30 10:03:58;;;;;;;5.30;1.80;;;;;;;15.22;33.24;100859.94;27275;1216;3058487;-68
2021/09/30 10:06:29;;;;;;;4.20;2.00;;;;;;;15.30;33.64;100860.13;27311;1216;3027034;-70
2021/09/30 10:09:00;;;;;;;5.60;2.40;;;;;;;15.35;33.80;100856.17;27305;1218;3026596;-69
2021/09/30 10:11:49;;;;;;;3.40;2.10;;;;;;;15.38;33.43;100851.56;27334;1218;3050530;-70
2021/09/30 10:14:18;;;;;;;3.00;1.80;;;;;;;15.41;33.07;100850.30;27285;1218;3026375;-70
2021/09/30 10:16:49;;;;;;;5.60;2.00;;;;;;;15.36;33.16;100850.45;27434;1217;3055001;-64
2021/09/30 10:19:25;;;;;;;5.40;1.80;;;;;;;15.44;33.11;100850.49;27520;1218;3051622;-66
2021/09/30 10:21:54;;;;;;;4.60;1.70;;;;;;;15.55;32.70;100845.81;27433;1217;3026338;-67
2021/09/30 10:24:30;;;;;;;3.70;2.00;;;;;;;15.64;31.96;100844.59;27323;1218;3050635;-69
2021/09/30 10:27:08;;;;;;;3.80;1.90;;;;;;;15.65;31.93;100841.70;27233;1218;3054746;-68
2021/09/30 10:29:44;;;;;;;8.10;2.20;;;;;;;15.66;32.08;100844.45;27319;1217;3026610;-66
2021/09/30 10:32:15;;;;;;;5.10;1.80;;;;;;;15.76;32.45;100844.36;27302;1219;3048203;-70
2021/09/30 10:34:47;;;;;;;5.80;2.10;;;;;;;15.91;31.71;100839.80;27347;1218;3026497;-69
2021/09/30 10:37:20;;;;;;;5.60;2.30;;;;;;;15.93;31.82;100845.17;27292;1219;3026586;-72
2021/09/30 10:40:11;;;;;;;7.70;1.90;;;;;;;15.96;32.30;100841.59;27273;1217;3026307;-67
2021/09/30 10:42:53;;;;;;;3.90;2.10;;;;;;;15.98;31.98;100847.88;27276;1217;3052259;-73
2021/09/30 10:45:43;;;;;;;5.30;2.10;;;;;;;16.08;32.08;100845.30;27363;1217;3052580;-71
2021/09/30 10:48:24;;;;;;;4.00;2.60;;;;;;;16.24;32.33;100845.05;27304;1217;3050304;-66
2021/09/30 10:50:54;;;;;;;9.40;2.90;;;;;;;16.25;31.65;100842.84;27274;1218;3069442;-69
2021/09/30 10:53:45;;;;;;;7.10;2.60;;;;;;;16.32;31.33;100838.52;27353;1217;3026160;-67
2021/09/30 10:56:30;;;;;;;5.70;3.10;;;;;;;16.36;31.42;100839.17;27298;1217;3051855;-69
2021/09/30 10:59:00;;;;;;;7.20;2.50;;;;;;;16.35;31.71;100838.12;27254;1218;3052698;-71
2021/09/30 11:01:29;;;;;;;9.80;3.10;;;;;;;16.39;31.37;100835.77;27244;1217;3026215;-68
2021/09/30 11:04:05;;;;;;;3.90;2.60;;;;;;;16.43;31.66;100835.02;27301;1217;3025880;-69
2021/09/30 11:06:34;;;;;;;5.30;2.50;;;;;;;16.40;31.40;100835.89;27736;1217;3055417;-69
2021/09/30 11:09:22;;;;;;;5.70;3.10;;;;;;;16.41;30.81;100836.73;27263;1219;3026311;-69
2021/09/30 11:12:06;;;;;;;7.30;2.90;;;;;;;16.52;30.41;100841.89;27279;1217;3068611;-67
2021/09/30 11:14:53;;;;;;;6.60;3.10;;;;;;;16.57;30.45;100841.88;27275;1218;3051084;-70
2021/09/30 11:17:38;;;;;;;8.70;2.60;;;;;;;16.70;30.11;100838.60;27275;1218;3051830;-65
2021/09/30 11:20:32;;;;;;;8.10;2.90;;;;;;;16.70;30.30;100833.98;27295;1216;3054845;-68
2021/09/30 11:23:01;;;;;;;5.20;2.60;;;;;;;16.73;30.38;100834.98;27294;1218;3056358;-69
2021/09/30 11:26:08;;;;;;;4.50;2.10;;;;;;;16.78;30.25;100831.88;27295;1217;3052027;-69
2021/09/30 11:28:38;;;;;;;9.10;2.60;;;;;;;16.83;29.71;100828.70;27285;1217;3054943;-68
2021/09/30 11:31:27;;;;;;;8.10;2.10;;;;;;;16.93;29.68;100825.80;27244;1218;3027928;-68
2021/09/30 11:33:58;;;;;;;8.10;2.20;;;;;;;17.07;29.57;100832.14;27258;1218;3069992;-71
2021/09/30 11:36:35;;;;;;;11.70;2.50;;;;;;;17.02;29.93;100831.23;27316;1218;3026698;-70
2021/09/30 11:39:05;;;;;;;5.10;2.20;;;;;;;17.08;29.95;100824.97;27288;1216;3054626;-67
2021/09/30 11:41:40;;;;;;;7.50;2.40;;;;;;;17.04;29.91;100827.02;27291;1218;3026263;-71
2021/09/30 11:44:16;;;;;;;5.80;1.90;;;;;;;17.10;29.71;100825.92;27339;1218;3048517;-68
2021/09/30 11:46:56;;;;;;;6.20;2.10;;;;;;;17.12;29.72;100820.98;27310;1217;3052771;-66
2021/09/30 11:49:25;;;;;;;6.10;2.00;;;;;;;17.21;28.94;100818.81;27330;1218;3052610;-71
2021/09/30 11:51:55;;;;;;;4.60;2.70;;;;;;;17.34;28.92;100816.90;27320;1216;3030118;-69
2021/09/30 11:54:33;;;;;;;6.80;2.40;;;;;;;17.46;28.59;100815.21;27337;1219;3052373;-68
2021/09/30 11:57:02;;;;;;;11.00;2.30;;;;;;;17.40;29.07;100811.36;27318;1216;3052560;-68
2021/09/30 11:59:32;;;;;;;5.50;2.60;;;;;;;17.42;29.44;100810.35;27326;1218;3026735;-67
2021/09/30 12:02:06;;;;;;;6.10;2.90;;;;;;;17.48;28.94;100811.50;27338;1218;3054732;-70
2021/09/30 12:04:42;;;;;;;7.20;2.40;;;;;;;17.54;28.68;100806.17;27219;1218;3025942;-69
2021/09/30 12:07:26;;;;;;;10.70;2.50;;;;;;;17.67;28.49;100801.94;27349;1216;3058843;-70
2021/09/30 12:09:56;;;;;;;9.90;2.60;;;;;;;17.66;28.50;100798.08;27336;1216;3026015;-68
2021/09/30 12:12:35;;;;;;;7.40;2.30;;;;;;;17.67;28.53;100798.15;27305;1218;3025943;-69
2021/09/30 12:15:06;;;;;;;7.60;3.10;;;;;;;17.78;27.71;100795.45;27336;1216;3050794;-70
2021/09/30 12:17:55;;;;;;;10.90;3.00;;;;;;;17.87;27.87;100797.50;27280;1219;3071314;-71
2021/09/30 12:20:24;;;;;;;5.80;3.00;;;;;;;17.96;27.95;100792.84;27318;1216;3028905;-70
2021/09/30 12:23:00;;;;;;;9.30;2.60;;;;;;;17.97;27.46;100793.41;27334;1216;3053361;-71
2021/09/30 12:25:30;;;;;;;6.40;2.00;;;;;;;18.18;27.02;100794.28;27301;1216;3071221;-70
2021/09/30 12:27:59;;;;;;;10.60;2.50;;;;;;;18.14;27.25;100793.98;27236;1216;3026292;-70
2021/09/30 12:30:29;;;;;;;5.10;2.10;;;;;;;18.12;27.30;100792.02;27277;1218;3054007;-71
2021/09/30 12:33:02;;;;;;;5.00;2.20;;;;;;;18.14;27.64;100791.56;27281;1218;3026181;-70
2021/09/30 12:35:41;;;;;;;5.90;2.40;;;;;;;18.18;27.66;100790.56;27281;1216;3027250;-69
2021/09/30 12:38:16;;;;;;;4.80;2.30;;;;;;;18.29;27.63;100788.73;27375;1216;3052466;-70
2021/09/30 12:40:51;;;;;;;7.30;2.30;;;;;;;18.45;27.21;100785.21;27323;1217;3056345;-71
2021/09/30 12:43:31;;;;;;;12.50;2.50;;;;;;;18.41;27.42;100781.24;27302;1219;3058121;-70
2021/09/30 12:46:07;;;;;;;8.50;2.00;;;;;;;18.56;27.83;100781.83;27288;1216;3049522;-70
2021/09/30 12:48:38;;;;;;;9.20;2.50;;;;;;;18.64;27.04;100781.37;27313;1219;3055771;-68
2021/09/30 12:51:15;;;;;;;4.20;1.90;;;;;;;18.77;26.60;100778.63;27319;1219;3026562;-69
2021/09/30 12:53:50;;;;;;;3.40;1.90;;;;;;;18.86;26.61;100777.46;27242;1217;3069111;-73
2021/09/30 12:56:27;;;;;;;7.30;2.60;;;;;;;18.85;25.88;100776.30;27261;1216;3047763;-71
2021/09/30 12:58:57;;;;;;;5.20;1.90;;;;;;;18.73;26.19;100779.48;27308;1218;3051018;-66
2021/09/30 13:01:34;;;;;;;8.90;2.00;;;;;;;18.79;26.75;100782.04;27303;1216;3026150;-72
2021/09/30 13:04:23;;;;;;;6.10;1.90;;;;;;;18.79;26.61;100776.93;27273;1216;3058713;-67
2021/09/30 13:07:05;;;;;;;3.80;1.80;;;;;;;18.88;26.01;100776.05;27282;1218;3050654;-68
2021/09/30 13:09:35;;;;;;;5.70;1.90;;;;;;;18.96;25.75;100774.93;27285;1216;3053197;-68
2021/09/30 13:12:20;;;;;;;8.20;2.00;;;;;;;18.95;26.14;100769.73;27311;1218;3026271;-70
2021/09/30 13:14:54;;;;;;;4.10;1.80;;;;;;;18.98;25.79;100770.36;27273;1218;3067936;-70
2021/09/30 13:17:24;;;;;;;7.10;2.50;;;;;;;18.97;25.50;100766.73;27354;1216;3049604;-69
2021/09/30 13:20:14;;;;;;;4.30;2.00;;;;;;;18.95;25.91;100767.75;27359;1218;3052286;-69
2021/09/30 13:22:43;;;;;;;3.60;1.70;;;;;;;18.98;25.71;100765.26;27297;1209;3026583;-71
2021/09/30 13:25:17;;;;;;;6.20;2.20;;;;;;;18.94;25.95;100766.05;27326;1213;3026903;-75
2021/09/30 13:27:48;;;;;;;4.20;2.10;;;;;;;19.04;25.59;100763.57;27312;1219;3054221;-72
2021/09/30 13:30:22;;;;;;;4.00;1.70;;;;;;;19.04;25.48;100762.84;27339;1216;3026512;-71
2021/09/30 13:32:52;;;;;;;6.70;2.10;;;;;;;19.04;25.52;100763.22;27337;1216;3055833;-73
2021/09/30 13:35:24;;;;;;;7.60;2.00;;;;;;;19.09;25.68;100767.95;27345;1218;3026386;-69
2021/09/30 13:37:53;;;;;;;5.80;2.40;;;;;;;19.08;25.52;100765.73;27385;1216;3027058;-69
2021/09/30 13:40:23;;;;;;;3.90;1.90;;;;;;;19.11;26.13;100766.53;27260;1217;3029280;-72
2021/09/30 13:42:53;;;;;;;6.30;2.00;;;;;;;19.14;26.30;100764.89;27281;1218;3049081;-71
2021/09/30 13:49:25;;;;;;;3.60;2.10;;;;;;;19.24;25.96;100758.62;27295;1218;3051432;-71
2021/09/30 13:51:54;;;;;;;4.10;1.90;;;;;;;19.18;26.06;100756.60;27326;1216;3027571;-71
2021/09/30 13:54:23;;;;;;;5.80;2.00;;;;;;;19.13;26.27;100755.77;27281;1219;3052296;-69
2021/09/30 13:56:52;;;;;;;3.90;2.00;;;;;;;19.18;25.83;100753.08;27259;1216;3026158;-68
2021/09/30 13:59:21;;;;;;;3.70;2.10;;;;;;;19.16;25.63;100751.08;27265;1216;3048732;-67
2021/09/30 14:01:51;;;;;;;5.60;1.90;;;;;;;19.18;25.96;100752.70;27276;1219;3028226;-71
2021/09/30 14:04:20;;;;;;;4.60;1.90;;;;;;;19.20;26.07;100749.38;27253;1217;3057184;-69
2021/09/30 14:06:51;;;;;;;8.10;2.60;;;;;;;19.15;26.15;100748.34;27206;1219;3025714;-73
2021/09/30 14:09:22;;;;;;;5.60;2.30;;;;;;;19.09;26.11;100748.96;27211;1219;3051453;-67
2021/09/30 14:11:52;;;;;;;7.00;2.80;;;;;;;19.01;25.33;100750.95;27253;1216;3026959;-71
2021/09/30 14:14:41;;;;;;;7.80;3.20;;;;;;;18.94;25.45;100749.35;27208;1219;3050746;-68
2021/09/30 14:17:10;;;;;;;9.40;3.20;;;;;;;18.98;25.27;100749.25;27262;1216;3026013;-69
2021/09/30 14:19:39;;;;;;;6.90;3.60;;;;;;;19.05;25.02;100745.92;27237;1216;3057462;-72
2021/09/30 14:22:28;;;;;;;6.70;2.90;;;;;;;18.96;25.33;100747.65;27296;1216;3049778;-70
2021/09/30 14:24:58;;;;;;;5.10;3.10;;;;;;;18.91;25.22;100744.09;27289;1218;3026493;-69
2021/09/30 14:27:28;;;;;;;5.50;3.10;;;;;;;18.75;25.68;100741.49;27280;1217;3028516;-71
2021/09/30 14:30:00;;;;;;;6.70;2.90;;;;;;;18.76;25.70;100744.67;27307;1217;3048455;-71
2021/09/30 14:32:29;;;;;;;5.00;2.90;;;;;;;18.79;25.73;100743.34;27321;1217;3028238;-69
2021/09/30 14:34:59;;;;;;;9.70;3.10;;;;;;;18.72;26.26;100744.59;27233;1218;3058016;-72
2021/09/30 14:37:27;;;;;;;5.80;3.20;;;;;;;18.69;26.01;100745.52;27290;1209;3026406;-72
2021/09/30 14:39:57;;;;;;;5.40;3.00;;;;;;;18.66;25.70;100741.34;27272;1217;3053577;-72
2021/09/30 14:42:26;;;;;;;6.30;3.00;;;;;;;18.60;25.49;100743.15;27311;1211;3026261;-73